createdAt,value
2023-02-22T00:01:03.076Z,30.13
2023-02-22T00:03:35.022Z,31.53
2023-02-22T00:06:05.118Z,33.37
2023-02-22T00:08:34.645Z,33.73
2023-02-22T00:11:04.309Z,32.20
2023-02-22T00:13:31.152Z,30.07
2023-02-22T00:15:59.962Z,29.53
2023-02-22T00:18:28.873Z,31.13
2023-02-22T00:21:01.046Z,33.13
2023-02-22T00:23:29.787Z,31.73
2023-02-22T00:25:58.217Z,32.83
2023-02-22T00:28:25.732Z,32.57
2023-02-22T00:30:52.932Z,33.37
2023-02-22T00:33:19.817Z,34.97
2023-02-22T00:35:46.934Z,34.73
2023-02-22T00:38:16.146Z,35.57
2023-02-22T00:40:43.231Z,31.87
2023-02-22T00:43:10.112Z,32.13
2023-02-22T00:45:37.760Z,32.00
2023-02-22T00:48:06.209Z,33.87
2023-02-22T00:50:34.186Z,31.30
2023-02-22T00:53:03.862Z,28.90
2023-02-22T00:55:33.426Z,28.80
2023-02-22T00:58:02.120Z,28.33
2023-02-22T01:00:35.162Z,27.20
2023-02-22T01:03:02.037Z,29.50
2023-02-22T01:05:30.189Z,32.53
2023-02-22T01:07:58.868Z,35.37
2023-02-22T01:10:28.343Z,30.37
2023-02-22T01:12:56.175Z,36.73
2023-02-22T01:15:24.707Z,35.03
2023-02-22T01:17:53.698Z,32.77
2023-02-22T01:20:29.242Z,43.13
2023-02-22T01:22:58.328Z,29.57
2023-02-22T01:25:28.742Z,32.00
2023-02-22T01:27:57.196Z,38.13
2023-02-22T01:30:29.751Z,35.30
2023-02-22T01:32:56.874Z,38.33
2023-02-22T01:35:29.971Z,34.67
2023-02-22T01:37:58.227Z,37.27
2023-02-22T01:40:31.897Z,34.20
2023-02-22T01:43:02.094Z,32.97
2023-02-22T01:45:55.081Z,33.67
2023-02-22T01:48:45.223Z,32.90
2023-02-22T01:51:27.891Z,27.23
2023-02-22T01:54:29.610Z,31.60
2023-02-22T01:57:27.339Z,29.67
2023-02-22T01:59:59.231Z,25.57
2023-02-22T02:02:26.548Z,27.20
2023-02-22T02:04:56.399Z,29.33
2023-02-22T02:07:24.686Z,30.10
2023-02-22T02:10:14.487Z,34.70
2023-02-22T02:12:49.911Z,25.60
2023-02-22T02:15:34.185Z,27.13
2023-02-22T02:18:07.351Z,29.03
2023-02-22T02:21:15.538Z,23.93
2023-02-22T02:24:09.177Z,26.93
2023-02-22T02:27:13.079Z,32.50
2023-02-22T02:30:32.117Z,23.90
2023-02-22T02:33:33.406Z,25.47
2023-02-22T02:36:44.559Z,27.03
2023-02-22T02:39:36.401Z,29.93
2023-02-22T02:42:08.796Z,25.00
2023-02-22T02:44:44.076Z,26.13
2023-02-22T02:47:26.578Z,21.93
2023-02-22T02:50:11.692Z,19.17
2023-02-22T02:52:41.455Z,20.20
2023-02-22T02:55:11.391Z,21.07
2023-02-22T02:57:39.139Z,23.43
2023-02-22T03:00:28.347Z,20.90
2023-02-22T03:03:29.947Z,26.10
2023-02-22T03:06:34.910Z,31.37
2023-02-22T03:09:48.142Z,27.63
2023-02-22T03:13:09.884Z,22.80
2023-02-22T03:16:21.058Z,31.50
2023-02-22T03:19:14.844Z,25.80
2023-02-22T03:21:50.036Z,21.57
2023-02-22T03:24:20.819Z,28.93
2023-02-22T03:27:04.203Z,26.83
2023-02-22T03:29:36.736Z,18.37
2023-02-22T03:32:07.902Z,18.27
2023-02-22T03:34:42.676Z,22.70
2023-02-22T03:37:17.008Z,20.13
2023-02-22T03:39:46.832Z,18.77
2023-02-22T03:42:24.492Z,19.47
2023-02-22T03:44:55.204Z,17.67
2023-02-22T03:47:30.708Z,19.07
2023-02-22T03:50:15.371Z,26.03
2023-02-22T03:52:43.604Z,26.73
2023-02-22T03:55:12.316Z,25.27
2023-02-22T03:57:43.965Z,18.83
2023-02-22T04:00:15.466Z,18.57
2023-02-22T04:02:42.548Z,22.37
2023-02-22T04:05:09.679Z,15.33
2023-02-22T04:07:37.063Z,19.00
2023-02-22T04:10:04.417Z,16.07
2023-02-22T04:12:31.268Z,19.90
2023-02-22T04:14:58.094Z,18.20
2023-02-22T04:17:24.912Z,17.47
2023-02-22T04:19:51.751Z,18.37
2023-02-22T04:22:18.653Z,20.77
2023-02-22T04:24:45.696Z,18.87
2023-02-22T04:27:12.642Z,17.03
2023-02-22T04:29:39.522Z,16.90
2023-02-22T04:32:06.872Z,20.63
2023-02-22T04:34:34.294Z,17.07
2023-02-22T04:37:01.222Z,14.70
2023-02-22T04:39:28.169Z,16.20
2023-02-22T04:41:55.076Z,16.00
2023-02-22T04:44:22.065Z,16.00
2023-02-22T04:46:49.048Z,21.73
2023-02-22T04:49:16.012Z,16.67
2023-02-22T04:51:42.956Z,15.67
2023-02-22T04:54:09.956Z,16.50
2023-02-22T04:56:36.960Z,12.80
2023-02-22T04:59:03.839Z,16.60
2023-02-22T05:01:34.950Z,17.63
2023-02-22T05:04:06.289Z,25.13
2023-02-22T05:06:33.533Z,15.57
2023-02-22T05:09:00.557Z,13.80
2023-02-22T05:11:27.467Z,13.87
2023-02-22T05:13:54.434Z,16.43
2023-02-22T05:16:21.664Z,22.73
2023-02-22T05:18:48.577Z,17.03
2023-02-22T05:21:15.842Z,13.20
2023-02-22T05:23:42.923Z,14.57
2023-02-22T05:26:11.643Z,16.30
2023-02-22T05:28:38.873Z,15.17
2023-02-22T05:31:07.537Z,15.00
2023-02-22T05:33:34.548Z,17.10
2023-02-22T05:36:01.487Z,22.07
2023-02-22T05:38:28.473Z,27.63
2023-02-22T05:40:55.367Z,21.53
2023-02-22T05:43:22.330Z,18.10
2023-02-22T05:45:49.244Z,24.50
2023-02-22T05:48:16.216Z,25.60
2023-02-22T05:50:44.476Z,25.17
2023-02-22T05:53:11.520Z,18.60
2023-02-22T05:55:38.608Z,18.80
2023-02-22T05:58:06.001Z,18.50
2023-02-22T06:00:33.886Z,17.17
2023-02-22T06:03:04.736Z,16.50
2023-02-22T06:05:31.723Z,16.20
2023-02-22T06:07:59.134Z,15.90
2023-02-22T06:10:27.095Z,15.27
2023-02-22T06:12:55.100Z,16.57
2023-02-22T06:15:23.755Z,15.63
2023-02-22T06:17:51.321Z,18.17
2023-02-22T06:20:21.518Z,21.77
2023-02-22T06:22:52.903Z,35.20
2023-02-22T06:25:24.092Z,27.33
2023-02-22T06:27:51.151Z,26.07
2023-02-22T06:30:21.373Z,26.63
2023-02-22T06:32:48.347Z,19.83
2023-02-22T06:35:16.182Z,23.93
2023-02-22T06:37:43.174Z,19.10
2023-02-22T06:40:11.354Z,26.77
2023-02-22T06:42:39.138Z,22.43
2023-02-22T06:45:06.277Z,24.20
2023-02-22T06:47:33.183Z,21.90
2023-02-22T06:50:01.089Z,19.10
2023-02-22T06:52:28.017Z,22.50
2023-02-22T06:54:54.883Z,26.37
2023-02-22T06:57:21.716Z,18.10
2023-02-22T06:59:48.574Z,19.27
2023-02-22T07:02:15.467Z,20.10
2023-02-22T07:04:43.537Z,19.30
2023-02-22T07:07:10.911Z,24.60
2023-02-22T07:09:37.818Z,25.53
2023-02-22T07:12:04.888Z,22.50
2023-02-22T07:14:31.838Z,17.87
2023-02-22T07:16:58.655Z,22.07
2023-02-22T07:19:25.519Z,17.20
2023-02-22T07:21:59.254Z,19.87
2023-02-22T07:24:28.654Z,22.77
2023-02-22T07:26:55.652Z,24.83
2023-02-22T07:29:22.625Z,24.77
2023-02-22T07:31:50.037Z,20.87
2023-02-22T07:34:17.084Z,33.57
2023-02-22T07:36:44.037Z,18.63
2023-02-22T07:39:11.217Z,16.67
2023-02-22T07:41:38.114Z,16.70
2023-02-22T07:44:05.172Z,16.60
2023-02-22T07:46:32.055Z,20.40
2023-02-22T07:48:58.909Z,16.83
2023-02-22T07:51:27.071Z,17.33
2023-02-22T07:53:54.009Z,18.40
2023-02-22T07:56:20.895Z,16.90
2023-02-22T07:58:47.788Z,17.53
2023-02-22T08:01:14.648Z,18.60
2023-02-22T08:03:42.630Z,19.73
2023-02-22T08:06:09.599Z,15.03
2023-02-22T08:08:36.528Z,16.07
2023-02-22T08:11:03.842Z,18.37
2023-02-22T08:13:30.855Z,14.90
2023-02-22T08:15:57.884Z,13.40
2023-02-22T08:18:25.728Z,12.30
2023-02-22T08:20:53.920Z,13.70
2023-02-22T08:23:25.297Z,13.70
2023-02-22T08:25:52.496Z,14.83
2023-02-22T08:28:22.562Z,14.60
2023-02-22T08:30:50.730Z,17.77
2023-02-22T08:33:19.943Z,19.33
2023-02-22T08:35:51.909Z,18.63
2023-02-22T08:38:27.700Z,16.90
2023-02-22T08:40:54.566Z,16.97
2023-02-22T08:43:22.470Z,16.10
2023-02-22T08:45:50.179Z,13.50
2023-02-22T08:48:18.074Z,12.60
2023-02-22T08:50:45.761Z,13.77
2023-02-22T08:53:14.360Z,16.00
2023-02-22T08:55:42.250Z,23.60
2023-02-22T08:58:10.004Z,22.63
2023-02-22T09:00:39.125Z,14.53
2023-02-22T09:03:09.701Z,15.40
2023-02-22T09:05:36.965Z,16.43
2023-02-22T09:08:04.406Z,17.60
2023-02-22T09:10:33.508Z,19.47
2023-02-22T09:13:01.635Z,13.60
2023-02-22T09:15:29.032Z,12.30
2023-02-22T09:17:56.488Z,11.43
2023-02-22T09:20:24.791Z,11.23
2023-02-22T09:22:53.079Z,9.70
2023-02-22T09:25:23.174Z,10.77
2023-02-22T09:27:52.075Z,10.17
2023-02-22T09:30:24.063Z,11.10
2023-02-22T09:33:00.071Z,9.37
2023-02-22T09:35:27.738Z,10.90
2023-02-22T09:37:59.543Z,9.40
2023-02-22T09:40:32.429Z,8.50
2023-02-22T09:43:45.193Z,8.43
2023-02-22T09:46:37.947Z,9.33
2023-02-22T09:49:47.400Z,8.77
2023-02-22T09:52:32.158Z,9.90
2023-02-22T09:55:41.315Z,10.10
2023-02-22T09:58:28.621Z,8.83
2023-02-22T10:01:01.091Z,8.90
2023-02-22T10:03:48.352Z,10.50
2023-02-22T10:06:21.742Z,10.10
2023-02-22T10:08:50.518Z,9.70
2023-02-22T10:11:49.050Z,9.17
2023-02-22T10:14:37.021Z,9.80
2023-02-22T10:17:55.768Z,10.03
2023-02-22T10:21:05.364Z,9.00
2023-02-22T10:24:16.299Z,9.87
2023-02-22T10:26:46.971Z,9.07
2023-02-22T10:29:40.718Z,9.63
2023-02-22T10:32:15.025Z,9.40
2023-02-22T10:34:48.515Z,10.00
2023-02-22T10:37:32.999Z,9.87
2023-02-22T10:40:17.489Z,10.27
2023-02-22T10:42:45.074Z,9.00
2023-02-22T10:45:23.822Z,10.03
2023-02-22T10:47:54.415Z,9.50
2023-02-22T10:50:22.294Z,8.17
2023-02-22T10:52:49.601Z,9.00
2023-02-22T10:55:17.376Z,9.53
2023-02-22T10:57:50.343Z,10.30
2023-02-22T11:00:39.847Z,8.70
2023-02-22T11:03:21.900Z,9.93
2023-02-22T11:05:49.528Z,9.90
2023-02-22T11:08:29.118Z,8.83
2023-02-22T11:11:00.529Z,8.73
2023-02-22T11:13:55.477Z,8.77
2023-02-22T11:16:39.275Z,8.47
2023-02-22T11:19:26.813Z,10.60
2023-02-22T11:21:57.365Z,9.70
2023-02-22T11:24:30.378Z,8.20
2023-02-22T11:27:02.619Z,8.30
2023-02-22T11:29:36.437Z,8.00
2023-02-22T11:32:22.629Z,8.40
2023-02-22T11:35:03.628Z,8.80
2023-02-22T11:37:37.326Z,8.70
2023-02-22T11:40:22.557Z,7.60
2023-02-22T11:43:06.313Z,7.47
2023-02-22T11:45:33.304Z,8.40
2023-02-22T11:48:02.786Z,7.40
2023-02-22T11:51:03.616Z,7.30
2023-02-22T11:54:00.170Z,7.57
2023-02-22T11:56:49.043Z,6.93
2023-02-22T11:59:45.462Z,5.87
2023-02-22T12:02:56.437Z,6.30
2023-02-22T12:05:47.229Z,6.40
2023-02-22T12:08:31.282Z,6.40
2023-02-22T12:11:29.223Z,6.00
2023-02-22T12:14:36.608Z,6.80
2023-02-22T12:17:58.091Z,6.07
2023-02-22T12:20:47.770Z,6.40
2023-02-22T12:24:02.712Z,5.17
2023-02-22T12:26:41.850Z,5.60
2023-02-22T12:29:33.473Z,4.93
2023-02-22T12:32:10.045Z,4.90
2023-02-22T12:35:02.012Z,4.23
2023-02-22T12:37:48.623Z,4.27
2023-02-22T12:40:32.493Z,4.00
2023-02-22T12:43:06.313Z,4.30
2023-02-22T12:45:38.380Z,3.80
2023-02-22T12:48:35.550Z,4.50
2023-02-22T12:51:54.591Z,4.87
2023-02-22T12:54:45.460Z,4.90
2023-02-22T12:57:17.133Z,4.30
2023-02-22T12:59:57.501Z,4.20
2023-02-22T13:03:10.623Z,5.03
2023-02-22T13:05:40.130Z,4.37
2023-02-22T13:08:36.445Z,4.33
2023-02-22T13:11:42.461Z,5.50
2023-02-22T13:14:30.210Z,4.50
2023-02-22T13:20:52.514Z,4.90
2023-02-22T13:24:03.995Z,3.87
2023-02-22T13:26:54.334Z,3.67
2023-02-22T13:29:28.754Z,4.30
2023-02-22T13:32:51.833Z,3.87
2023-02-22T13:35:42.509Z,4.17
2023-02-22T13:38:12.594Z,4.37
2023-02-22T13:41:24.371Z,4.13
2023-02-22T13:44:45.781Z,4.50
2023-02-22T13:53:56.143Z,4.43
2023-02-22T13:56:25.375Z,5.10
2023-02-22T13:58:59.081Z,4.00
2023-02-22T14:01:46.581Z,3.30
2023-02-22T14:04:47.517Z,3.70
2023-02-22T14:07:47.827Z,4.07
2023-02-22T14:10:56.374Z,4.00
2023-02-22T14:13:28.529Z,6.10
2023-02-22T14:16:28.195Z,3.50
2023-02-22T14:19:23.835Z,3.30
2023-02-22T14:22:05.937Z,2.43
2023-02-22T14:24:51.125Z,3.30
2023-02-22T14:27:18.602Z,3.13
2023-02-22T14:29:58.196Z,3.13
2023-02-22T14:32:32.548Z,3.20
2023-02-22T14:35:06.354Z,3.10
2023-02-22T14:37:39.325Z,2.43
2023-02-22T14:40:29.404Z,2.90
2023-02-22T14:43:20.051Z,3.00
2023-02-22T14:45:56.398Z,2.80
2023-02-22T14:48:45.147Z,2.63
2023-02-22T14:51:33.969Z,2.63
2023-02-22T14:54:09.870Z,2.67
2023-02-22T14:56:44.373Z,2.40
2023-02-22T14:59:19.051Z,2.83
2023-02-22T15:01:58.678Z,2.10
2023-02-22T15:04:32.953Z,2.23
2023-02-22T15:07:07.638Z,2.63
2023-02-22T15:09:37.581Z,2.83
2023-02-22T15:12:18.397Z,3.97
2023-02-22T15:14:47.774Z,2.63
2023-02-22T15:17:21.527Z,2.60
2023-02-22T15:19:49.776Z,3.37
2023-02-22T15:22:24.018Z,2.70
2023-02-22T15:25:00.268Z,3.00
2023-02-22T15:27:28.581Z,3.23
2023-02-22T15:30:24.071Z,2.77
2023-02-22T15:33:03.791Z,2.93
2023-02-22T15:35:33.582Z,2.70
2023-02-22T15:38:32.794Z,3.13
2023-02-22T15:41:05.114Z,2.80
2023-02-22T15:43:32.821Z,3.33
2023-02-22T15:46:01.347Z,3.23
2023-02-22T15:48:31.668Z,3.03
2023-02-22T15:51:11.763Z,3.73
2023-02-22T15:53:45.672Z,3.10
2023-02-22T15:56:19.552Z,3.50
2023-02-22T15:58:47.977Z,2.97
2023-02-22T16:01:19.237Z,3.13
2023-02-22T16:03:48.759Z,3.10
2023-02-22T16:06:25.183Z,3.40
2023-02-22T16:08:55.489Z,3.00
2023-02-22T16:11:32.148Z,3.30
2023-02-22T16:14:05.244Z,3.13
2023-02-22T16:16:35.136Z,3.83
2023-02-22T16:19:41.396Z,3.70
2023-02-22T16:22:50.067Z,3.20
2023-02-22T16:25:39.593Z,4.13
2023-02-22T16:28:34.011Z,3.80
2023-02-22T16:31:01.899Z,3.03
2023-02-22T16:33:34.100Z,4.90
2023-02-22T16:36:06.045Z,4.50
2023-02-22T16:38:34.113Z,4.13
2023-02-22T16:41:01.025Z,4.43
2023-02-22T16:43:32.827Z,4.40
2023-02-22T16:46:03.868Z,4.73
2023-02-22T16:48:32.953Z,3.90
2023-02-22T16:51:09.201Z,3.70
2023-02-22T16:53:37.508Z,3.80
2023-02-22T16:56:08.765Z,4.20
2023-02-22T16:58:39.398Z,4.23
2023-02-22T17:01:06.925Z,4.10
2023-02-22T17:03:33.821Z,4.70
2023-02-22T17:06:00.910Z,5.70
2023-02-22T17:08:27.708Z,4.80
2023-02-22T17:10:56.900Z,4.00
2023-02-22T17:13:27.178Z,5.03
2023-02-22T17:15:55.100Z,6.17
2023-02-22T17:18:23.996Z,5.27
2023-02-22T17:20:52.777Z,5.17
2023-02-22T17:23:21.068Z,5.80
2023-02-22T17:25:53.712Z,6.80
2023-02-22T17:28:21.577Z,7.57
2023-02-22T17:30:49.955Z,7.73
2023-02-22T17:33:21.461Z,8.30
2023-02-22T17:35:48.723Z,8.90
2023-02-22T17:38:18.988Z,9.73
2023-02-22T17:40:54.893Z,9.20
2023-02-22T17:43:22.817Z,8.83
2023-02-22T17:45:50.093Z,8.10
2023-02-22T17:48:18.164Z,7.60
2023-02-22T17:50:46.574Z,7.33
2023-02-22T17:53:13.801Z,7.63
2023-02-22T17:55:42.589Z,8.20
2023-02-22T17:58:14.775Z,8.10
2023-02-22T18:00:47.271Z,7.53
2023-02-22T18:03:21.581Z,7.70
2023-02-22T18:05:50.289Z,6.73
2023-02-22T18:08:17.417Z,7.90
2023-02-22T18:10:44.673Z,8.03
2023-02-22T18:13:19.350Z,8.07
2023-02-22T18:15:47.331Z,7.10
2023-02-22T18:18:14.982Z,8.17
2023-02-22T18:20:44.411Z,9.93
2023-02-22T18:23:17.194Z,10.07
2023-02-22T18:26:03.865Z,8.80
2023-02-22T18:28:36.057Z,10.07
2023-02-22T18:31:10.714Z,9.00
2023-02-22T18:33:37.629Z,10.60
2023-02-22T18:36:05.056Z,8.93
2023-02-22T18:38:32.044Z,10.40
2023-02-22T18:41:06.746Z,9.40
2023-02-22T18:43:37.138Z,9.40
2023-02-22T18:46:09.699Z,9.30
2023-02-22T18:48:37.128Z,9.73
2023-02-22T18:51:06.521Z,10.00
2023-02-22T18:53:33.462Z,8.30
2023-02-22T18:56:08.749Z,8.30
2023-02-22T18:58:36.410Z,8.87
2023-02-22T19:01:04.052Z,8.70
2023-02-22T19:03:32.693Z,9.57
2023-02-22T19:06:04.827Z,9.00
2023-02-22T19:08:32.705Z,9.27
2023-02-22T19:11:08.488Z,9.03
2023-02-22T19:13:35.993Z,9.20
2023-02-22T19:16:05.033Z,10.60
2023-02-22T19:18:32.076Z,11.10
2023-02-22T19:21:08.608Z,9.93
2023-02-22T19:23:37.483Z,10.70
2023-02-22T19:26:05.182Z,10.13
2023-02-22T19:28:34.760Z,10.23
2023-02-22T19:31:26.751Z,10.30
2023-02-22T19:33:53.739Z,10.37
2023-02-22T19:36:23.218Z,10.97
2023-02-22T19:38:50.364Z,10.73
2023-02-22T19:41:20.812Z,10.00
2023-02-22T19:43:49.701Z,10.00
2023-02-22T19:46:17.913Z,10.93
2023-02-22T19:48:45.389Z,10.83
2023-02-22T19:51:14.533Z,10.27
2023-02-22T19:53:42.836Z,11.30
2023-02-22T19:56:16.866Z,11.27
2023-02-22T19:58:45.294Z,11.03
2023-02-22T20:01:24.381Z,11.60
2023-02-22T20:03:54.576Z,11.93
2023-02-22T20:06:25.632Z,12.03
2023-02-22T20:08:53.220Z,12.63
2023-02-22T20:11:20.367Z,13.10
2023-02-22T20:13:47.696Z,13.00
2023-02-22T20:16:15.735Z,12.73
2023-02-22T20:18:43.823Z,13.47
2023-02-22T20:21:12.826Z,15.20
2023-02-22T20:23:41.565Z,14.70
2023-02-22T20:26:15.132Z,14.60
2023-02-22T20:28:42.226Z,16.53
2023-02-22T20:31:14.238Z,17.07
2023-02-22T20:33:42.832Z,17.23
2023-02-22T20:36:11.070Z,17.27
2023-02-22T20:38:38.688Z,16.20
2023-02-22T20:41:12.676Z,18.50
2023-02-22T20:43:42.272Z,16.73
2023-02-22T20:46:09.207Z,18.23
2023-02-22T20:48:36.110Z,17.43
2023-02-22T20:51:08.020Z,21.00
2023-02-22T20:53:35.462Z,20.20
2023-02-22T20:56:02.686Z,19.87
2023-02-22T20:58:29.524Z,20.67
2023-02-22T21:00:56.364Z,20.40
2023-02-22T21:03:23.261Z,20.73
2023-02-22T21:05:50.156Z,20.67
2023-02-22T21:08:17.004Z,22.60
2023-02-22T21:10:46.546Z,23.70
2023-02-22T21:13:13.635Z,27.30
2023-02-22T21:15:43.574Z,27.73
2023-02-22T21:18:14.120Z,29.07
2023-02-22T21:20:43.290Z,29.90
2023-02-22T21:23:13.761Z,31.57
2023-02-22T21:25:49.297Z,29.70
2023-02-22T21:28:16.275Z,31.57
2023-02-22T21:30:43.369Z,32.30
2023-02-22T21:33:10.800Z,34.90
2023-02-22T21:35:40.278Z,32.47
2023-02-22T21:38:07.345Z,34.60
2023-02-22T21:40:37.337Z,30.93
2023-02-22T21:43:04.208Z,34.50
2023-02-22T21:45:31.769Z,36.30
2023-02-22T21:47:59.490Z,34.60
2023-02-22T21:50:30.186Z,35.93
2023-02-22T21:52:58.153Z,37.90
2023-02-22T21:55:25.145Z,34.00
2023-02-22T21:57:52.096Z,35.73
2023-02-22T22:00:29.057Z,37.90
2023-02-22T22:02:59.378Z,36.83
2023-02-22T22:05:35.049Z,38.87
2023-02-22T22:08:02.071Z,36.80
2023-02-22T22:10:31.023Z,36.00
2023-02-22T22:12:58.310Z,38.23
2023-02-22T22:15:26.262Z,36.30
2023-02-22T22:17:53.482Z,37.13
2023-02-22T22:20:22.065Z,36.30
2023-02-22T22:22:49.231Z,37.17
2023-02-22T22:25:19.200Z,36.87
2023-02-22T22:27:46.562Z,38.77
2023-02-22T22:30:16.102Z,36.63
2023-02-22T22:32:43.545Z,37.20
2023-02-22T22:35:14.664Z,37.67
2023-02-22T22:37:42.715Z,40.13
2023-02-22T22:40:15.696Z,36.87
2023-02-22T22:42:42.958Z,37.00
2023-02-22T22:45:11.834Z,35.50
2023-02-22T22:47:39.579Z,37.00
2023-02-22T22:50:07.519Z,36.67
2023-02-22T22:52:35.734Z,35.77
2023-02-22T22:55:02.846Z,37.80
2023-02-22T22:57:29.746Z,36.63
2023-02-22T22:59:56.864Z,35.03
2023-02-22T23:02:23.742Z,36.60
2023-02-22T23:04:51.769Z,39.23
2023-02-22T23:07:18.820Z,36.70
2023-02-22T23:09:45.662Z,39.87
2023-02-22T23:12:16.844Z,37.20
2023-02-22T23:14:44.982Z,35.80
2023-02-22T23:17:15.737Z,38.17
2023-02-22T23:19:45.066Z,38.30
2023-02-22T23:22:14.517Z,38.30
2023-02-22T23:24:42.759Z,39.17
2023-02-22T23:27:12.361Z,37.10
2023-02-22T23:29:41.591Z,39.10
2023-02-22T23:32:09.105Z,37.90
2023-02-22T23:34:37.041Z,36.10
2023-02-22T23:37:03.952Z,41.17
2023-02-22T23:39:30.841Z,38.10
2023-02-22T23:41:59.528Z,37.97
2023-02-22T23:44:27.376Z,39.20
2023-02-22T23:46:57.776Z,38.17
2023-02-22T23:49:36.091Z,39.03
2023-02-22T23:52:06.965Z,38.40
2023-02-22T23:54:40.279Z,40.87
2023-02-22T23:57:08.874Z,37.87
2023-02-22T23:59:36.619Z,40.33
